createdAt,value
2019-04-07T00:01:31.836Z,28.47
2019-04-07T00:03:58.612Z,32.75
2019-04-07T00:06:25.853Z,33.58
2019-04-07T00:08:52.604Z,26.87
2019-04-07T00:11:19.591Z,28.32
2019-04-07T00:13:46.249Z,26.95
2019-04-07T00:16:13.400Z,25.82
2019-04-07T00:18:40.173Z,25.75
2019-04-07T00:21:06.744Z,29.65
2019-04-07T00:23:33.568Z,29.63
2019-04-07T00:26:00.280Z,28.00
2019-04-07T00:28:27.513Z,32.15
2019-04-07T00:30:54.237Z,29.23
2019-04-07T00:33:20.813Z,36.00
2019-04-07T00:35:47.385Z,35.23
2019-04-07T00:38:13.993Z,36.83
2019-04-07T00:40:40.577Z,30.72
2019-04-07T00:43:07.193Z,30.37
2019-04-07T00:45:33.801Z,31.17
2019-04-07T00:48:00.503Z,23.52
2019-04-07T00:50:27.118Z,28.50
2019-04-07T00:52:53.732Z,26.90
2019-04-07T00:55:20.456Z,26.65
2019-04-07T00:57:47.159Z,27.05
2019-04-07T01:00:16.481Z,23.80
2019-04-07T01:02:42.191Z,28.15
2019-04-07T01:05:08.837Z,27.27
2019-04-07T01:07:35.557Z,25.25
2019-04-07T01:10:02.213Z,30.88
2019-04-07T01:12:29.505Z,24.82
2019-04-07T01:14:56.570Z,24.63
2019-04-07T01:17:23.785Z,25.23
2019-04-07T01:19:50.891Z,26.33
2019-04-07T01:22:17.727Z,28.67
2019-04-07T01:24:44.440Z,25.85
2019-04-07T01:27:11.581Z,18.10
2019-04-07T01:29:38.770Z,27.30
2019-04-07T01:32:06.049Z,25.97
2019-04-07T01:34:32.712Z,26.30
2019-04-07T01:36:59.817Z,24.98
2019-04-07T01:39:26.457Z,25.97
2019-04-07T01:41:53.717Z,27.07
2019-04-07T01:44:20.597Z,21.95
2019-04-07T01:46:47.222Z,16.32
2019-04-07T01:49:13.799Z,20.27
2019-04-07T01:51:40.941Z,18.20
2019-04-07T01:54:07.721Z,19.87
2019-04-07T01:56:34.299Z,18.48
2019-04-07T01:59:01.520Z,17.45
2019-04-07T02:01:28.516Z,16.15
2019-04-07T02:03:55.193Z,19.57
2019-04-07T02:06:22.147Z,17.73
2019-04-07T02:08:48.794Z,17.77
2019-04-07T02:11:15.406Z,15.03
2019-04-07T02:13:42.865Z,16.12
2019-04-07T02:16:10.282Z,15.35
2019-04-07T02:18:37.725Z,17.75
2019-04-07T02:21:05.326Z,14.78
2019-04-07T02:23:32.618Z,18.82
2019-04-07T02:25:59.391Z,15.78
2019-04-07T02:28:26.415Z,17.82
2019-04-07T02:30:53.133Z,13.25
2019-04-07T02:33:19.714Z,14.73
2019-04-07T02:35:46.635Z,14.65
2019-04-07T02:38:16.090Z,15.93
2019-04-07T02:40:42.646Z,17.23
2019-04-07T02:43:10.449Z,17.23
2019-04-07T02:45:37.214Z,10.78
2019-04-07T02:48:03.809Z,17.48
2019-04-07T02:50:39.863Z,13.25
2019-04-07T02:53:07.513Z,13.18
2019-04-07T02:55:34.308Z,13.95
2019-04-07T02:58:01.514Z,12.30
2019-04-07T03:00:28.257Z,12.23
2019-04-07T03:02:55.830Z,13.55
2019-04-07T03:05:22.602Z,10.65
2019-04-07T03:07:49.217Z,12.33
2019-04-07T03:10:15.930Z,13.15
2019-04-07T03:12:43.393Z,14.30
2019-04-07T03:15:10.991Z,10.80
2019-04-07T03:17:37.792Z,13.35
2019-04-07T03:20:05.098Z,13.25
2019-04-07T03:22:32.436Z,11.88
2019-04-07T03:24:59.990Z,10.38
2019-04-07T03:27:27.137Z,10.03
2019-04-07T03:29:53.890Z,16.00
2019-04-07T03:32:23.867Z,10.48
2019-04-07T03:34:49.556Z,10.43
2019-04-07T03:37:30.984Z,9.50
2019-04-07T03:39:46.032Z,9.48
2019-04-07T03:42:12.700Z,7.95
2019-04-07T03:44:39.265Z,8.73
2019-04-07T03:47:07.012Z,9.10
2019-04-07T03:49:35.007Z,11.05
2019-04-07T03:52:02.014Z,8.55
2019-04-07T03:54:29.109Z,9.78
2019-04-07T03:56:56.545Z,9.75
2019-04-07T03:59:23.370Z,13.10
2019-04-07T04:01:49.962Z,7.62
2019-04-07T04:04:16.628Z,10.72
2019-04-07T04:06:43.330Z,11.45
2019-04-07T04:09:09.980Z,10.08
2019-04-07T04:11:36.657Z,15.95
2019-04-07T04:14:03.233Z,12.35
2019-04-07T04:16:29.812Z,10.90
2019-04-07T04:18:56.856Z,9.13
2019-04-07T04:21:24.262Z,11.05
2019-04-07T04:23:51.655Z,11.73
2019-04-07T04:26:18.385Z,10.68
2019-04-07T04:28:45.002Z,12.37
2019-04-07T04:31:11.580Z,12.03
2019-04-07T04:33:38.148Z,11.00
2019-04-07T04:36:05.621Z,12.80
2019-04-07T04:38:32.280Z,9.70
2019-04-07T04:40:58.888Z,9.13
2019-04-07T04:43:25.563Z,9.68
2019-04-07T04:45:53.250Z,14.50
2019-04-07T04:48:20.073Z,12.13
2019-04-07T04:50:47.175Z,14.55
2019-04-07T04:53:14.902Z,14.90
2019-04-07T04:55:41.717Z,13.43
2019-04-07T04:58:08.786Z,10.40
2019-04-07T05:00:36.397Z,9.85
2019-04-07T05:03:03.149Z,11.70
2019-04-07T05:05:30.373Z,13.93
2019-04-07T05:08:02.706Z,10.20
2019-04-07T05:10:25.469Z,12.73
2019-04-07T05:12:53.675Z,11.43
2019-04-07T05:15:21.000Z,9.45
2019-04-07T05:17:47.731Z,9.35
2019-04-07T05:20:14.304Z,9.63
2019-04-07T05:22:41.232Z,8.28
2019-04-07T05:25:08.556Z,9.10
2019-04-07T05:27:35.393Z,7.35
2019-04-07T05:30:02.469Z,7.08
2019-04-07T05:32:29.231Z,6.83
2019-04-07T05:34:55.810Z,13.60
2019-04-07T05:37:22.987Z,6.40
2019-04-07T05:39:49.921Z,7.15
2019-04-07T05:42:16.664Z,7.85
2019-04-07T05:44:44.385Z,9.90
2019-04-07T05:47:13.717Z,7.60
2019-04-07T05:49:39.408Z,8.10
2019-04-07T05:52:06.718Z,8.40
2019-04-07T05:54:34.048Z,8.43
2019-04-07T05:57:01.603Z,8.98
2019-04-07T05:59:29.596Z,7.40
2019-04-07T06:02:00.744Z,6.87
2019-04-07T06:04:26.031Z,7.70
2019-04-07T06:06:55.345Z,7.03
2019-04-07T06:09:21.108Z,8.10
2019-04-07T06:11:48.820Z,6.35
2019-04-07T06:14:16.728Z,11.38
2019-04-07T06:16:43.788Z,6.95
2019-04-07T06:19:10.644Z,8.10
2019-04-07T06:21:37.810Z,7.20
2019-04-07T06:24:04.766Z,6.55
2019-04-07T06:26:31.394Z,8.98
2019-04-07T06:28:58.868Z,6.97
2019-04-07T06:31:26.892Z,8.53
2019-04-07T06:33:55.090Z,5.33
2019-04-07T06:36:22.216Z,9.25
2019-04-07T06:38:51.849Z,6.47
2019-04-07T06:41:17.411Z,7.00
2019-04-07T06:43:44.154Z,8.13
2019-04-07T06:46:10.784Z,8.83
2019-04-07T06:48:39.034Z,6.08
2019-04-07T06:51:06.038Z,8.10
2019-04-07T06:53:32.813Z,7.08
2019-04-07T06:56:02.111Z,6.58
2019-04-07T06:58:27.683Z,9.83
2019-04-07T07:00:55.957Z,6.67
2019-04-07T07:03:22.669Z,7.62
2019-04-07T07:05:49.520Z,6.85
2019-04-07T07:08:19.352Z,8.85
2019-04-07T07:10:44.493Z,7.70
2019-04-07T07:13:20.189Z,8.00
2019-04-07T07:15:39.683Z,7.17
2019-04-07T07:18:06.387Z,7.25
2019-04-07T07:20:32.997Z,7.95
2019-04-07T07:23:00.699Z,6.15
2019-04-07T07:25:29.702Z,5.72
2019-04-07T07:27:55.662Z,6.67
2019-04-07T07:30:22.236Z,5.87
2019-04-07T07:32:49.685Z,7.05
2019-04-07T07:35:16.546Z,7.97
2019-04-07T07:37:43.445Z,5.22
2019-04-07T07:40:10.116Z,6.00
2019-04-07T07:42:36.739Z,7.95
2019-04-07T07:45:03.693Z,10.15
2019-04-07T07:47:31.216Z,9.08
2019-04-07T07:49:58.446Z,6.33
2019-04-07T07:52:25.536Z,7.87
2019-04-07T07:54:52.989Z,6.87
2019-04-07T07:57:23.485Z,8.53
2019-04-07T07:59:48.654Z,8.78
2019-04-07T08:02:19.458Z,8.48
2019-04-07T08:04:43.603Z,7.37
2019-04-07T08:07:13.444Z,6.67
2019-04-07T08:09:39.250Z,8.90
2019-04-07T08:12:06.301Z,7.03
2019-04-07T08:14:32.940Z,7.33
2019-04-07T08:17:01.619Z,5.62
2019-04-07T08:19:29.662Z,7.33
2019-04-07T08:21:56.111Z,6.65
2019-04-07T08:24:22.920Z,5.47
2019-04-07T08:26:50.311Z,8.78
2019-04-07T08:29:17.018Z,7.05
2019-04-07T08:31:43.806Z,6.37
2019-04-07T08:34:10.966Z,6.15
2019-04-07T08:36:38.075Z,5.72
2019-04-07T08:39:05.016Z,7.47
2019-04-07T08:41:32.539Z,6.25
2019-04-07T08:43:59.852Z,4.85
2019-04-07T08:46:26.552Z,7.22
2019-04-07T08:48:54.289Z,5.30
2019-04-07T08:51:21.351Z,8.70
2019-04-07T08:53:48.422Z,5.65
2019-04-07T08:56:15.482Z,7.03
2019-04-07T08:58:42.565Z,13.13
2019-04-07T09:01:09.724Z,5.62
2019-04-07T09:03:36.465Z,6.72
2019-04-07T09:06:03.074Z,7.33
2019-04-07T09:08:29.726Z,10.75
2019-04-07T09:10:56.690Z,7.12
2019-04-07T09:13:24.032Z,7.12
2019-04-07T09:15:50.635Z,7.35
2019-04-07T09:18:18.090Z,6.22
2019-04-07T09:20:48.485Z,8.45
2019-04-07T09:23:14.683Z,6.80
2019-04-07T09:25:42.777Z,7.62
2019-04-07T09:28:10.082Z,8.35
2019-04-07T09:30:36.852Z,5.92
2019-04-07T09:33:03.561Z,6.17
2019-04-07T09:35:30.929Z,4.67
2019-04-07T09:37:57.701Z,5.15
2019-04-07T09:40:24.450Z,6.70
2019-04-07T09:42:51.934Z,6.90
2019-04-07T09:45:18.627Z,7.83
2019-04-07T09:47:47.156Z,10.35
2019-04-07T09:50:13.583Z,4.70
2019-04-07T09:52:43.575Z,4.83
2019-04-07T09:55:09.496Z,4.08
2019-04-07T09:57:38.736Z,6.25
2019-04-07T10:00:07.286Z,5.47
2019-04-07T10:02:35.437Z,6.80
2019-04-07T10:05:01.857Z,6.83
2019-04-07T10:07:28.474Z,8.43
2019-04-07T10:10:07.411Z,6.08
2019-04-07T10:12:24.797Z,8.58
2019-04-07T10:14:51.592Z,6.42
2019-04-07T10:17:18.189Z,6.28
2019-04-07T10:19:44.746Z,6.08
2019-04-07T10:22:12.312Z,9.25
2019-04-07T10:24:39.407Z,8.25
2019-04-07T10:27:06.932Z,6.40
2019-04-07T10:29:34.092Z,6.40
2019-04-07T10:32:01.256Z,6.25
2019-04-07T10:34:28.426Z,9.10
2019-04-07T10:36:55.720Z,12.18
2019-04-07T10:39:22.989Z,7.10
2019-04-07T10:41:50.667Z,10.03
2019-04-07T10:44:17.945Z,8.55
2019-04-07T10:46:44.963Z,10.53
2019-04-07T10:49:11.827Z,7.22
2019-04-07T10:51:38.415Z,7.80
2019-04-07T10:54:04.989Z,9.73
2019-04-07T10:56:31.972Z,7.40
2019-04-07T10:58:59.349Z,8.95
2019-04-07T11:01:26.696Z,9.50
2019-04-07T11:03:54.752Z,10.78
2019-04-07T11:06:22.692Z,10.25
2019-04-07T11:08:49.464Z,11.33
2019-04-07T11:11:16.186Z,8.65
2019-04-07T11:13:42.957Z,9.20
2019-04-07T11:16:10.814Z,7.58
2019-04-07T11:18:38.240Z,10.65
2019-04-07T11:21:04.833Z,15.55
2019-04-07T11:23:31.981Z,9.25
2019-04-07T11:25:59.363Z,13.30
2019-04-07T11:28:28.699Z,13.22
2019-04-07T11:30:54.368Z,10.98
2019-04-07T11:33:20.990Z,11.40
2019-04-07T11:35:47.637Z,12.82
2019-04-07T11:38:14.893Z,13.35
2019-04-07T11:40:47.595Z,12.55
2019-04-07T11:43:10.704Z,14.35
2019-04-07T11:45:37.787Z,13.98
2019-04-07T11:48:04.465Z,15.50
2019-04-07T11:50:31.042Z,14.68
2019-04-07T11:52:57.635Z,14.68
2019-04-07T11:55:26.211Z,13.40
2019-04-07T11:58:06.598Z,14.35
2019-04-07T12:00:20.925Z,13.13
2019-04-07T12:02:49.293Z,11.10
2019-04-07T12:05:15.947Z,11.03
2019-04-07T12:07:42.509Z,11.78
2019-04-07T12:10:09.575Z,12.20
2019-04-07T12:12:36.274Z,14.43
2019-04-07T12:15:02.888Z,16.97
2019-04-07T12:17:30.052Z,10.45
2019-04-07T12:19:57.831Z,11.68
2019-04-07T12:22:24.991Z,13.32
2019-04-07T12:24:51.671Z,9.30
2019-04-07T12:27:21.153Z,11.30
2019-04-07T12:29:47.170Z,12.18
2019-04-07T12:32:13.826Z,12.47
2019-04-07T12:34:43.900Z,17.40
2019-04-07T12:37:10.312Z,13.20
2019-04-07T12:39:37.013Z,15.18
2019-04-07T12:42:04.425Z,11.20
2019-04-07T12:44:31.942Z,12.68
2019-04-07T12:46:58.570Z,12.85
2019-04-07T12:49:25.371Z,13.40
2019-04-07T12:51:55.688Z,12.65
2019-04-07T12:54:20.721Z,14.45
2019-04-07T12:56:47.801Z,13.32
2019-04-07T12:59:16.531Z,14.35
2019-04-07T13:01:47.077Z,12.68
2019-04-07T13:04:11.197Z,14.25
2019-04-07T13:06:42.321Z,14.53
2019-04-07T13:09:06.081Z,13.28
2019-04-07T13:11:37.288Z,15.50
2019-04-07T13:14:05.010Z,15.13
2019-04-07T13:16:29.524Z,15.88
2019-04-07T13:18:56.653Z,18.60
2019-04-07T13:21:24.996Z,18.60
2019-04-07T13:23:51.815Z,16.60
2019-04-07T13:26:18.702Z,16.87
2019-04-07T13:28:45.361Z,17.75
2019-04-07T13:31:12.414Z,18.80
2019-04-07T13:33:39.455Z,16.93
2019-04-07T13:36:06.175Z,16.80
2019-04-07T13:38:32.885Z,17.77
2019-04-07T13:40:59.596Z,15.88
2019-04-07T13:43:26.525Z,19.27
2019-04-07T13:45:53.924Z,17.95
2019-04-07T13:48:21.423Z,16.57
2019-04-07T13:50:48.023Z,15.83
2019-04-07T13:53:14.642Z,17.15
2019-04-07T13:55:43.822Z,16.55
2019-04-07T13:58:09.736Z,16.62
2019-04-07T14:00:37.016Z,16.55
2019-04-07T14:03:03.672Z,16.97
2019-04-07T14:05:30.243Z,17.07
2019-04-07T14:07:57.152Z,17.65
2019-04-07T14:10:24.413Z,15.13
2019-04-07T14:12:51.080Z,18.23
2019-04-07T14:15:17.650Z,18.92
2019-04-07T14:17:44.972Z,17.23
2019-04-07T14:20:11.693Z,17.70
2019-04-07T14:22:38.320Z,17.02
2019-04-07T14:25:04.887Z,18.67
2019-04-07T14:27:31.458Z,18.50
2019-04-07T14:29:58.036Z,18.70
2019-04-07T14:32:24.610Z,19.35
2019-04-07T14:34:51.190Z,20.97
2019-04-07T14:37:18.598Z,22.22
2019-04-07T14:39:45.577Z,23.22
2019-04-07T14:42:13.098Z,23.98
2019-04-07T14:44:40.173Z,22.10
2019-04-07T14:47:07.614Z,24.50
2019-04-07T14:49:34.345Z,25.05
2019-04-07T14:52:01.419Z,22.37
2019-04-07T14:54:28.232Z,22.52
2019-04-07T14:56:55.362Z,22.02
2019-04-07T14:59:24.653Z,24.20
2019-04-07T15:01:51.247Z,23.20
2019-04-07T15:04:18.181Z,23.30
2019-04-07T15:06:44.942Z,24.23
2019-04-07T15:09:12.200Z,22.82
2019-04-07T15:11:38.829Z,22.15
2019-04-07T15:14:06.162Z,23.15
2019-04-07T15:16:32.914Z,23.12
2019-04-07T15:18:59.587Z,21.95
2019-04-07T15:21:26.159Z,22.02
2019-04-07T15:23:52.989Z,24.43
2019-04-07T15:26:20.366Z,22.02
2019-04-07T15:28:46.940Z,25.57
2019-04-07T15:31:17.240Z,25.77
2019-04-07T15:33:42.346Z,25.32
2019-04-07T15:36:09.356Z,23.85
2019-04-07T15:38:37.411Z,25.85
2019-04-07T15:41:07.792Z,25.85
2019-04-07T15:43:34.859Z,24.25
2019-04-07T15:46:01.272Z,22.62
2019-04-07T15:48:28.557Z,23.30
2019-04-07T15:50:56.142Z,27.52
2019-04-07T15:53:22.890Z,23.90
2019-04-07T15:55:58.480Z,25.50
2019-04-07T15:58:17.796Z,24.87
2019-04-07T16:00:45.130Z,21.75
2019-04-07T16:03:15.091Z,26.20
2019-04-07T16:05:43.819Z,24.98
2019-04-07T16:08:11.246Z,25.92
2019-04-07T16:10:37.568Z,22.30
2019-04-07T16:13:04.676Z,24.02
2019-04-07T16:15:33.249Z,26.45
2019-04-07T16:18:03.415Z,24.43
2019-04-07T16:20:32.338Z,26.85
2019-04-07T16:22:57.460Z,26.12
2019-04-07T16:25:27.602Z,26.80
2019-04-07T16:27:52.510Z,26.55
2019-04-07T16:30:20.290Z,30.92
2019-04-07T16:32:48.020Z,28.27
2019-04-07T16:35:16.367Z,25.50
2019-04-07T16:37:43.741Z,30.70
2019-04-07T16:40:11.663Z,27.35
2019-04-07T16:42:39.234Z,35.90
2019-04-07T16:45:06.081Z,31.60
2019-04-07T16:47:35.620Z,29.85
2019-04-07T16:50:01.113Z,30.80
2019-04-07T16:52:31.807Z,56.60
2019-04-07T16:54:56.084Z,40.95
2019-04-07T16:57:26.971Z,46.15
2019-04-07T16:59:50.980Z,43.10
2019-04-07T17:02:19.247Z,45.50
2019-04-07T17:04:48.392Z,42.33
2019-04-07T17:07:16.761Z,127.92
2019-04-07T17:09:43.293Z,71.35
2019-04-07T17:12:11.582Z,50.15
2019-04-07T17:14:38.201Z,48.00
2019-04-07T17:17:05.031Z,40.67
2019-04-07T17:19:32.467Z,41.63
2019-04-07T17:22:00.352Z,50.92
2019-04-07T17:24:30.311Z,46.95
2019-04-07T17:26:56.235Z,47.83
2019-04-07T17:29:23.531Z,72.95
2019-04-07T17:31:50.849Z,59.93
2019-04-07T17:34:18.429Z,54.27
2019-04-07T17:36:48.487Z,46.55
2019-04-07T17:39:14.345Z,42.95
2019-04-07T17:41:41.660Z,40.88
2019-04-07T17:44:08.362Z,39.05
2019-04-07T17:46:34.927Z,42.13
2019-04-07T17:49:01.497Z,44.67
2019-04-07T17:51:28.698Z,45.33
2019-04-07T17:53:55.333Z,49.88
2019-04-07T17:56:22.219Z,51.40
2019-04-07T17:58:48.910Z,46.02
2019-04-07T18:01:15.873Z,44.53
2019-04-07T18:03:44.212Z,44.03
2019-04-07T18:06:11.221Z,46.68
2019-04-07T18:08:41.789Z,45.80
2019-04-07T18:11:06.416Z,45.92
2019-04-07T18:13:41.984Z,44.58
2019-04-07T18:16:01.298Z,65.50
2019-04-07T18:18:28.261Z,77.92
2019-04-07T18:20:55.011Z,67.42
2019-04-07T18:23:24.053Z,80.42
2019-04-07T18:25:51.838Z,62.93
2019-04-07T18:28:21.541Z,55.58
2019-04-07T18:30:47.226Z,52.33
2019-04-07T18:33:18.238Z,59.25
2019-04-07T18:35:42.984Z,58.85
2019-04-07T18:38:11.431Z,55.90
2019-04-07T18:40:39.336Z,53.50
2019-04-07T18:43:06.328Z,60.50
2019-04-07T18:45:33.100Z,56.20
2019-04-07T18:47:59.982Z,59.55
2019-04-07T18:50:26.562Z,77.47
2019-04-07T18:52:55.540Z,62.75
2019-04-07T18:55:22.408Z,76.02
2019-04-07T18:57:49.166Z,79.80
2019-04-07T19:00:17.010Z,71.28
2019-04-07T19:02:45.971Z,78.55
2019-04-07T19:05:14.033Z,68.92
2019-04-07T19:07:41.654Z,71.90
2019-04-07T19:10:15.499Z,70.62
2019-04-07T19:12:36.780Z,63.42
2019-04-07T19:15:08.050Z,61.73
2019-04-07T19:17:32.660Z,69.40
2019-04-07T19:20:00.682Z,89.67
2019-04-07T19:22:27.376Z,93.85
2019-04-07T19:24:55.816Z,91.50
2019-04-07T19:27:25.381Z,96.85
2019-04-07T19:29:50.820Z,110.83
2019-04-07T19:32:17.964Z,111.00
2019-04-07T19:34:45.806Z,102.67
2019-04-07T19:37:15.553Z,94.62
2019-04-07T19:39:40.675Z,94.83
2019-04-07T19:42:08.801Z,96.05
2019-04-07T19:44:40.015Z,90.67
2019-04-07T19:47:04.441Z,96.12
2019-04-07T19:49:31.118Z,98.10
2019-04-07T19:52:02.353Z,100.12
2019-04-07T19:54:27.207Z,90.92
2019-04-07T19:56:54.699Z,98.80
2019-04-07T19:59:21.703Z,94.20
2019-04-07T20:01:49.108Z,97.90
2019-04-07T20:04:16.314Z,104.23
2019-04-07T20:06:44.016Z,109.20
2019-04-07T20:09:12.255Z,100.60
2019-04-07T20:11:39.923Z,112.12
2019-04-07T20:14:10.471Z,105.45
2019-04-07T20:16:34.880Z,107.22
2019-04-07T20:19:02.345Z,111.65
2019-04-07T20:21:37.471Z,119.37
2019-04-07T20:24:02.292Z,119.60
2019-04-07T20:26:26.207Z,123.25
2019-04-07T20:28:53.002Z,123.33
2019-04-07T20:31:22.461Z,150.42
2019-04-07T20:33:47.856Z,149.65
2019-04-07T20:36:20.249Z,169.32
2019-04-07T20:38:42.841Z,149.00
2019-04-07T20:41:12.033Z,156.20
2019-04-07T20:43:38.389Z,137.40
2019-04-07T20:46:05.085Z,144.62
2019-04-07T20:48:33.376Z,145.10
2019-04-07T20:51:00.473Z,139.72
2019-04-07T20:53:29.857Z,133.78
2019-04-07T20:55:56.077Z,137.57
2019-04-07T20:58:25.088Z,117.75
2019-04-07T21:00:58.352Z,111.85
2019-04-07T21:03:22.648Z,92.53
2019-04-07T21:05:48.272Z,89.07
2019-04-07T21:08:15.024Z,87.90
2019-04-07T21:10:41.621Z,97.08
2019-04-07T21:13:08.761Z,95.22
2019-04-07T21:15:35.765Z,96.05
2019-04-07T21:18:02.503Z,101.07
2019-04-07T21:20:29.810Z,88.65
2019-04-07T21:22:56.680Z,96.40
2019-04-07T21:25:25.146Z,103.83
2019-04-07T21:27:52.664Z,88.80
2019-04-07T21:30:19.403Z,103.53
2019-04-07T21:32:48.512Z,95.15
2019-04-07T21:35:14.999Z,104.12
2019-04-07T21:37:45.054Z,98.75
2019-04-07T21:40:10.050Z,100.12
2019-04-07T21:42:36.916Z,98.70
2019-04-07T21:45:05.787Z,116.93
2019-04-07T21:47:31.922Z,120.02
2019-04-07T21:49:58.561Z,101.02
2019-04-07T21:52:25.993Z,110.30
2019-04-07T21:54:53.319Z,127.45
2019-04-07T21:57:20.266Z,110.65
2019-04-07T21:59:47.864Z,105.00
2019-04-07T22:02:15.343Z,106.80
2019-04-07T22:04:42.083Z,98.67
2019-04-07T22:07:09.086Z,113.30
2019-04-07T22:09:35.829Z,108.97
2019-04-07T22:12:02.434Z,101.82
2019-04-07T22:14:29.009Z,111.25
2019-04-07T22:16:55.615Z,112.25
2019-04-07T22:19:22.325Z,115.88
2019-04-07T22:21:53.248Z,112.90
2019-04-07T22:24:17.283Z,117.03
2019-04-07T22:26:49.202Z,103.02
2019-04-07T22:29:12.212Z,108.67
2019-04-07T22:31:38.825Z,113.00
2019-04-07T22:34:05.400Z,103.10
2019-04-07T22:36:32.020Z,107.70
2019-04-07T22:39:00.959Z,112.88
2019-04-07T22:41:27.062Z,94.92
2019-04-07T22:43:53.668Z,101.70
2019-04-07T22:46:24.592Z,111.92
2019-04-07T22:48:48.573Z,97.25
2019-04-07T22:51:15.178Z,103.27
2019-04-07T22:53:41.750Z,104.72
2019-04-07T22:56:09.133Z,109.25
2019-04-07T22:58:36.129Z,107.97
2019-04-07T23:01:02.872Z,111.72
2019-04-07T23:03:29.457Z,101.92
2019-04-07T23:05:56.062Z,96.37
2019-04-07T23:08:22.646Z,106.45
2019-04-07T23:10:49.741Z,85.17
2019-04-07T23:13:16.624Z,99.20
2019-04-07T23:15:45.856Z,96.50
2019-04-07T23:18:11.662Z,86.72
2019-04-07T23:20:38.336Z,84.07
2019-04-07T23:23:04.960Z,88.62
2019-04-07T23:25:32.252Z,87.90
2019-04-07T23:27:58.905Z,75.72
2019-04-07T23:30:25.705Z,77.27
2019-04-07T23:32:52.336Z,89.65
2019-04-07T23:35:18.933Z,81.67
2019-04-07T23:37:45.514Z,82.25
2019-04-07T23:40:12.092Z,76.62
2019-04-07T23:42:38.667Z,73.40
2019-04-07T23:45:05.248Z,79.47
2019-04-07T23:47:31.837Z,66.95
2019-04-07T23:49:58.677Z,68.67
2019-04-07T23:52:25.260Z,67.27
2019-04-07T23:54:52.457Z,66.57
2019-04-07T23:57:19.786Z,68.45
2019-04-07T23:59:47.202Z,67.10
